Terminal Aerodrome Forecast
Issued by NWS Albany, NY

Current Version | Previous Version | Text Only | Print | Product List | Glossary On
Versions: 1 2 3 4 5 6 7 8 9 10 11 12 13 14 15 16 17 18 19 20 21 22 23 24
000 FTUS41 KALY 252300 TAFALB TAF KALB 252332Z 2600/2624 19006KT P6SM VCSH SCT025 OVC070 TEMPO 2600/2601 3SM -SHRA BR BKN025 OVC070 FM260200 25010KT P6SM OVC040 FM260600 28010G18KT P6SM BKN035 FM261400 30010G20KT P6SM VCSH SCT025 OVC040 FM261700 30015G25KT P6SM SCT025 OVC050=

USA.gov is the U.S. government's official web portal to all federal, state and local government web resources and services.